Time;durP1;ratioP1;P1;durP2;ratioP2;P2;SDS_P1;SDS_P2;PMS_P1;PMS_P2;Temp;Humidity;BMP_temperature;BMP_pressure;BME280_temperature;BME280_humidity;BME280_pressure;Samples;Min_cycle;Max_cycle;Signal;HPM_P1;HPM_P2
2022/06/10 00:00:16;;;;;;;10.17;2.77;;;;;;;;;;4884270;29;20202;-86
2022/06/10 00:02:45;;;;;;;11.93;4.00;;;;;;;;;;4899051;29;20218;-86
2022/06/10 00:05:16;;;;;;;17.07;3.93;;;;;;;;;;4900668;29;20214;-86
2022/06/10 00:07:44;;;;;;;8.30;2.60;;;;;;;;;;4902202;29;20228;-86
2022/06/10 00:10:14;;;;;;;4.17;3.00;;;;;;;;;;4883819;29;20213;-86
2022/06/10 00:12:42;;;;;;;5.47;2.57;;;;;;;;;;4908573;29;20247;-86
2022/06/10 00:15:11;;;;;;;7.03;2.37;;;;;;;;;;4918266;29;20227;-86
2022/06/10 00:17:40;;;;;;;6.50;2.93;;;;;;;;;;4883450;29;20218;-86
2022/06/10 00:20:10;;;;;;;9.57;3.43;;;;;;;;;;4914920;29;20234;-86
2022/06/10 00:22:40;;;;;;;10.23;3.90;;;;;;;;;;4883930;29;20193;-86
2022/06/10 00:25:09;;;;;;;8.10;3.20;;;;;;;;;;4925964;29;20205;-86
2022/06/10 00:27:40;;;;;;;7.63;2.90;;;;;;;;;;4889030;29;20299;-86
2022/06/10 00:30:10;;;;;;;5.87;2.20;;;;;;;;;;4888869;29;20211;-86
2022/06/10 00:32:41;;;;;;;11.23;2.40;;;;;;;;;;4928924;29;20256;-86
2022/06/10 00:35:10;;;;;;;11.53;4.97;;;;;;;;;;4918023;29;20339;-86
2022/06/10 00:37:40;;;;;;;5.00;2.60;;;;;;;;;;4901896;29;20210;-86
2022/06/10 00:40:09;;;;;;;6.90;3.10;;;;;;;;;;4914820;29;20212;-86
2022/06/10 00:42:38;;;;;;;14.17;4.37;;;;;;;;;;4914488;29;20233;-86
2022/06/10 00:45:08;;;;;;;14.03;3.83;;;;;;;;;;4883404;29;20220;-86
2022/06/10 00:47:38;;;;;;;10.23;4.63;;;;;;;;;;4880362;29;20297;-86
2022/06/10 00:50:16;;;;;;;9.90;3.83;;;;;;;;;;4899682;29;20217;-86
2022/06/10 00:52:49;;;;;;;12.87;3.57;;;;;;;;;;4914545;29;20295;-86
2022/06/10 00:55:17;;;;;;;10.20;4.17;;;;;;;;;;4899691;29;20220;-86
2022/06/10 00:57:47;;;;;;;8.57;3.30;;;;;;;;;;4898726;29;20212;-86
2022/06/10 01:00:16;;;;;;;6.70;2.93;;;;;;;;;;4886059;29;20277;-86
2022/06/10 01:02:45;;;;;;;6.27;3.20;;;;;;;;;;4883340;29;20207;-86
2022/06/10 01:05:15;;;;;;;7.23;4.00;;;;;;;;;;4879543;29;20304;-86
2022/06/10 01:07:47;;;;;;;9.20;3.43;;;;;;;;;;4891984;29;20206;-86
2022/06/10 01:10:17;;;;;;;8.67;3.47;;;;;;;;;;4882752;29;20212;-86
2022/06/10 01:12:53;;;;;;;4.13;1.80;;;;;;;;;;4882730;29;20323;-86
2022/06/10 01:15:28;;;;;;;11.37;4.17;;;;;;;;;;4913766;29;20229;-86
2022/06/10 01:18:11;;;;;;;9.60;3.03;;;;;;;;;;4914163;29;20205;-86
2022/06/10 01:20:45;;;;;;;8.90;3.43;;;;;;;;;;4898465;29;20241;-86
2022/06/10 01:23:33;;;;;;;9.57;2.87;;;;;;;;;;4882792;29;20210;-86
2022/06/10 01:26:20;;;;;;;7.93;2.70;;;;;;;;;;4882593;29;20212;-86
2022/06/10 01:29:11;;;;;;;11.50;3.40;;;;;;;;;;4913483;29;20209;-86
2022/06/10 01:31:45;;;;;;;9.23;3.40;;;;;;;;;;4882706;29;20211;-86
2022/06/10 01:34:19;;;;;;;8.77;3.50;;;;;;;;;;4913533;29;20209;-86
2022/06/10 01:36:52;;;;;;;12.70;4.50;;;;;;;;;;4898138;29;20225;-86
2022/06/10 01:39:25;;;;;;;9.33;3.43;;;;;;;;;;4887142;29;20307;-86
2022/06/10 01:41:57;;;;;;;14.50;3.67;;;;;;;;;;4905237;29;20213;-86
2022/06/10 01:44:31;;;;;;;11.73;4.07;;;;;;;;;;4915688;29;20230;-86
2022/06/10 01:47:05;;;;;;;9.80;3.37;;;;;;;;;;4906354;29;20213;-86
2022/06/10 01:49:38;;;;;;;6.67;2.57;;;;;;;;;;4895501;29;20216;-86
2022/06/10 01:52:11;;;;;;;10.67;2.40;;;;;;;;;;4897920;29;20279;-86
2022/06/10 01:54:41;;;;;;;7.67;2.33;;;;;;;;;;4887156;29;20265;-86
2022/06/10 01:57:11;;;;;;;6.07;2.67;;;;;;;;;;4906155;29;20240;-86
2022/06/10 01:59:40;;;;;;;11.90;3.57;;;;;;;;;;4898524;29;20209;-86
2022/06/10 02:02:12;;;;;;;7.67;3.07;;;;;;;;;;4882035;29;20215;-86
2022/06/10 02:04:42;;;;;;;9.53;3.60;;;;;;;;;;4882169;29;20212;-86
2022/06/10 02:07:13;;;;;;;3.93;2.53;;;;;;;;;;4907215;29;20212;-86
2022/06/10 02:09:45;;;;;;;7.63;3.10;;;;;;;;;;4900354;29;20267;-86
2022/06/10 02:12:15;;;;;;;6.13;2.63;;;;;;;;;;4912936;29;20264;-87
2022/06/10 02:14:45;;;;;;;4.40;2.90;;;;;;;;;;4881989;29;20203;-87
2022/06/10 02:17:16;;;;;;;6.67;3.60;;;;;;;;;;4881848;29;20305;-86
2022/06/10 02:19:46;;;;;;;7.10;4.03;;;;;;;;;;4882106;29;20221;-87
2022/06/10 02:22:17;;;;;;;8.20;3.27;;;;;;;;;;4913148;29;20209;-87
2022/06/10 02:24:47;;;;;;;5.37;3.07;;;;;;;;;;4913154;29;20233;-87
2022/06/10 02:27:17;;;;;;;5.40;3.03;;;;;;;;;;4926263;29;20201;-86
2022/06/10 02:29:51;;;;;;;9.20;3.23;;;;;;;;;;4922891;29;20216;-87
2022/06/10 02:32:27;;;;;;;9.90;2.93;;;;;;;;;;4914611;29;20202;-87
2022/06/10 02:34:57;;;;;;;8.40;2.30;;;;;;;;;;4913341;29;20221;-86
2022/06/10 02:37:29;;;;;;;6.53;2.47;;;;;;;;;;4884490;29;20221;-86
2022/06/10 02:40:03;;;;;;;11.80;4.13;;;;;;;;;;4908581;29;20209;-86
2022/06/10 02:42:35;;;;;;;7.63;2.93;;;;;;;;;;4882075;29;20203;-87
2022/06/10 02:45:12;;;;;;;11.70;3.13;;;;;;;;;;4893065;29;20304;-86
2022/06/10 02:47:47;;;;;;;6.33;3.20;;;;;;;;;;4885563;29;20211;-86
2022/06/10 02:50:16;;;;;;;5.90;3.13;;;;;;;;;;4911527;29;20205;-86
2022/06/10 02:52:45;;;;;;;2.90;1.60;;;;;;;;;;4900566;29;20211;-86
2022/06/10 02:55:16;;;;;;;7.53;3.10;;;;;;;;;;4901134;29;20202;-86
2022/06/10 03:03:48;;;;;;;14.07;4.40;;;;;;;;;;4897607;29;20235;-87
2022/06/10 03:06:20;;;;;;;10.27;3.90;;;;;;;;;;4934863;29;20228;-87
2022/06/10 03:08:52;;;;;;;7.37;3.27;;;;;;;;;;4917998;29;20265;-86
2022/06/10 03:11:25;;;;;;;6.20;2.83;;;;;;;;;;4900585;29;20214;-86
2022/06/10 03:13:58;;;;;;;7.47;2.90;;;;;;;;;;4918182;29;20348;-87
2022/06/10 03:16:32;;;;;;;7.70;3.33;;;;;;;;;;4919476;29;20232;-87
2022/06/10 03:19:08;;;;;;;10.67;3.20;;;;;;;;;;4905059;29;20223;-87
2022/06/10 03:21:42;;;;;;;9.00;3.97;;;;;;;;;;4919009;29;20221;-87
2022/06/10 03:24:14;;;;;;;8.70;2.57;;;;;;;;;;4916365;29;20206;-86
2022/06/10 03:26:45;;;;;;;5.70;2.00;;;;;;;;;;4912816;29;20213;-87
2022/06/10 03:29:18;;;;;;;11.30;4.20;;;;;;;;;;4905764;29;20288;-86
2022/06/10 03:31:48;;;;;;;8.00;3.60;;;;;;;;;;4932217;29;20210;-86
2022/06/10 03:34:20;;;;;;;4.90;2.77;;;;;;;;;;4954177;29;20217;-87
2022/06/10 03:36:48;;;;;;;8.23;4.37;;;;;;;;;;4926458;29;20223;-86
2022/06/10 03:39:20;;;;;;;11.90;4.93;;;;;;;;;;4900052;29;20243;-86
2022/06/10 03:41:56;;;;;;;10.40;4.00;;;;;;;;;;4895377;29;20215;-87
2022/06/10 03:44:25;;;;;;;11.80;2.23;;;;;;;;;;4920886;29;20231;-86
2022/06/10 03:46:55;;;;;;;14.30;4.80;;;;;;;;;;4921923;29;20213;-87
2022/06/10 03:49:27;;;;;;;4.83;3.20;;;;;;;;;;4901617;29;20291;-86
2022/06/10 03:51:56;;;;;;;10.87;5.00;;;;;;;;;;4891121;29;20252;-86
2022/06/10 03:54:24;;;;;;;7.07;3.10;;;;;;;;;;4915927;29;20210;-86
2022/06/10 03:56:53;;;;;;;15.07;4.70;;;;;;;;;;4911775;29;20209;-86
2022/06/10 03:59:22;;;;;;;10.87;5.00;;;;;;;;;;4953244;29;20208;-86
2022/06/10 04:01:50;;;;;;;11.80;5.07;;;;;;;;;;4953335;29;20202;-86
2022/06/10 04:04:20;;;;;;;11.53;6.23;;;;;;;;;;4923458;29;20245;-87
2022/06/10 04:06:50;;;;;;;10.23;3.77;;;;;;;;;;4921998;29;20203;-86
2022/06/10 04:09:27;;;;;;;12.10;6.07;;;;;;;;;;4936147;29;20217;-86
2022/06/10 04:11:57;;;;;;;15.23;6.70;;;;;;;;;;4920564;29;20211;-86
2022/06/10 04:14:26;;;;;;;6.63;3.80;;;;;;;;;;4890384;29;20211;-87
2022/06/10 04:16:54;;;;;;;11.60;5.87;;;;;;;;;;4879911;29;20299;-86
2022/06/10 04:19:23;;;;;;;10.70;6.17;;;;;;;;;;4883606;29;20229;-86
2022/06/10 04:21:52;;;;;;;3.37;2.70;;;;;;;;;;4899321;29;20217;-86
2022/06/10 04:24:21;;;;;;;8.57;4.03;;;;;;;;;;4900310;29;20213;-86
2022/06/10 04:26:50;;;;;;;7.60;5.67;;;;;;;;;;4928711;29;20209;-86
2022/06/10 04:29:19;;;;;;;10.23;5.47;;;;;;;;;;4912606;29;20294;-86
2022/06/10 04:31:48;;;;;;;7.97;3.17;;;;;;;;;;4883776;29;20223;-87
2022/06/10 04:34:17;;;;;;;9.57;2.57;;;;;;;;;;4912030;29;20198;-86
2022/06/10 04:36:48;;;;;;;9.27;4.43;;;;;;;;;;4880586;29;20280;-86
2022/06/10 04:39:18;;;;;;;7.60;4.10;;;;;;;;;;4882386;29;20214;-86
2022/06/10 04:41:46;;;;;;;6.70;3.50;;;;;;;;;;4899208;29;20215;-86
2022/06/10 04:44:14;;;;;;;8.77;3.97;;;;;;;;;;4903088;29;20304;-86
2022/06/10 04:46:46;;;;;;;15.60;3.67;;;;;;;;;;4918014;29;20293;-86
2022/06/10 04:49:15;;;;;;;9.70;4.30;;;;;;;;;;4915991;29;20210;-85
2022/06/10 04:51:44;;;;;;;7.37;2.70;;;;;;;;;;4880186;29;20217;-86
2022/06/10 04:54:13;;;;;;;6.73;3.10;;;;;;;;;;4895484;29;20247;-86
2022/06/10 04:56:42;;;;;;;5.43;2.47;;;;;;;;;;4899540;29;20222;-86
2022/06/10 04:59:11;;;;;;;2.90;1.33;;;;;;;;;;4880447;29;20305;-86
2022/06/10 05:01:39;;;;;;;5.37;3.50;;;;;;;;;;4899031;29;20303;-86
2022/06/10 05:04:08;;;;;;;4.77;2.07;;;;;;;;;;4895294;29;20211;-86
2022/06/10 05:06:36;;;;;;;4.53;2.40;;;;;;;;;;4899836;29;20230;-87
2022/06/10 05:09:05;;;;;;;14.90;3.53;;;;;;;;;;4882463;29;20234;-86
2022/06/10 05:11:33;;;;;;;8.47;1.97;;;;;;;;;;4882974;29;20214;-86
2022/06/10 05:14:03;;;;;;;6.37;3.07;;;;;;;;;;4914031;29;20242;-86
2022/06/10 05:16:31;;;;;;;2.67;1.50;;;;;;;;;;4883115;29;20206;-86
2022/06/10 05:19:00;;;;;;;8.83;2.00;;;;;;;;;;4899410;29;20232;-86
2022/06/10 05:21:28;;;;;;;5.63;1.77;;;;;;;;;;4882729;29;20215;-86
2022/06/10 05:23:57;;;;;;;6.20;2.27;;;;;;;;;;4931269;29;20223;-86
2022/06/10 05:26:28;;;;;;;6.27;2.43;;;;;;;;;;4933137;29;20213;-86
2022/06/10 05:28:57;;;;;;;5.73;2.50;;;;;;;;;;4916642;29;20199;-86
2022/06/10 05:31:26;;;;;;;9.97;4.43;;;;;;;;;;4916959;29;20206;-86
2022/06/10 05:36:41;;;;;;;12.27;5.07;;;;;;;;;;4906650;29;20366;-86
2022/06/10 05:39:09;;;;;;;11.43;4.00;;;;;;;;;;4886062;29;20210;-86
2022/06/10 05:44:25;;;;;;;11.67;3.80;;;;;;;;;;4899377;29;20232;-86
2022/06/10 05:46:56;;;;;;;13.67;2.83;;;;;;;;;;4898281;29;20242;-86
2022/06/10 05:49:25;;;;;;;8.90;3.10;;;;;;;;;;4899383;29;20215;-85
2022/06/10 05:51:53;;;;;;;10.60;5.03;;;;;;;;;;4898657;29;20228;-84
2022/06/10 05:54:22;;;;;;;5.80;4.00;;;;;;;;;;4916790;29;20198;-84
2022/06/10 05:56:51;;;;;;;14.43;4.17;;;;;;;;;;4910564;29;20204;-84
2022/06/10 05:59:22;;;;;;;7.57;3.37;;;;;;;;;;4883661;29;20235;-84
2022/06/10 06:01:50;;;;;;;5.97;3.97;;;;;;;;;;4891900;29;20195;-84
2022/06/10 06:04:20;;;;;;;8.67;4.27;;;;;;;;;;4932611;29;20269;-84
2022/06/10 06:06:48;;;;;;;11.30;4.10;;;;;;;;;;4907140;29;20232;-85
2022/06/10 06:09:17;;;;;;;4.73;3.60;;;;;;;;;;4905065;29;20212;-86
2022/06/10 06:11:50;;;;;;;11.07;3.43;;;;;;;;;;4901492;29;20212;-86
2022/06/10 06:14:20;;;;;;;6.70;3.77;;;;;;;;;;4905035;29;20280;-85
2022/06/10 06:16:51;;;;;;;14.70;4.50;;;;;;;;;;4908155;29;20210;-85
2022/06/10 06:19:21;;;;;;;9.23;4.07;;;;;;;;;;4913804;29;20223;-85
2022/06/10 06:21:50;;;;;;;8.17;3.37;;;;;;;;;;4895767;29;20305;-85
2022/06/10 06:24:18;;;;;;;9.60;4.33;;;;;;;;;;4920712;29;20207;-85
2022/06/10 06:26:46;;;;;;;3.27;2.70;;;;;;;;;;4917665;29;20203;-85
2022/06/10 06:29:15;;;;;;;5.27;3.77;;;;;;;;;;4906314;29;20199;-85
2022/06/10 06:31:43;;;;;;;8.30;3.13;;;;;;;;;;4917952;29;20203;-85
2022/06/10 06:34:12;;;;;;;7.97;4.10;;;;;;;;;;4914941;29;20229;-85
2022/06/10 06:36:44;;;;;;;7.17;3.70;;;;;;;;;;4924294;29;20215;-85
2022/06/10 06:39:14;;;;;;;5.20;2.70;;;;;;;;;;4899056;29;20219;-85
2022/06/10 06:41:49;;;;;;;11.73;3.50;;;;;;;;;;4913826;29;20205;-85
2022/06/10 06:44:17;;;;;;;4.00;3.00;;;;;;;;;;4902716;29;20227;-85
2022/06/10 06:46:45;;;;;;;6.47;3.83;;;;;;;;;;4932416;29;20211;-85
2022/06/10 06:49:15;;;;;;;12.50;3.80;;;;;;;;;;4916123;29;20293;-85
2022/06/10 06:51:45;;;;;;;9.70;3.33;;;;;;;;;;4917450;29;20282;-84
2022/06/10 06:54:13;;;;;;;10.30;4.33;;;;;;;;;;4917774;29;20277;-85
2022/06/10 06:56:42;;;;;;;10.33;5.10;;;;;;;;;;4894336;29;20200;-85
2022/06/10 06:59:10;;;;;;;9.13;3.40;;;;;;;;;;4908158;29;20243;-85
2022/06/10 07:01:39;;;;;;;7.70;4.00;;;;;;;;;;4925596;29;20200;-85
2022/06/10 07:04:11;;;;;;;7.00;2.93;;;;;;;;;;4910377;29;20207;-87
2022/06/10 07:06:51;;;;;;;3.83;1.83;;;;;;;;;;4900298;29;20215;-84
2022/06/10 07:09:20;;;;;;;8.43;2.97;;;;;;;;;;4900447;29;20214;-84
2022/06/10 07:11:51;;;;;;;6.90;4.27;;;;;;;;;;4888503;29;20231;-86
2022/06/10 07:14:22;;;;;;;7.80;3.50;;;;;;;;;;4898392;29;20236;-85
2022/06/10 07:16:52;;;;;;;9.43;3.27;;;;;;;;;;4905796;29;20304;-85
2022/06/10 07:19:20;;;;;;;7.50;2.87;;;;;;;;;;4895356;29;20260;-85
2022/06/10 07:21:51;;;;;;;9.33;3.47;;;;;;;;;;4895632;29;20205;-86
2022/06/10 07:24:21;;;;;;;11.00;2.80;;;;;;;;;;4905555;29;20273;-85
2022/06/10 07:26:50;;;;;;;6.87;2.70;;;;;;;;;;4917774;29;20204;-85
2022/06/10 07:29:19;;;;;;;10.30;3.13;;;;;;;;;;4913527;29;20319;-86
2022/06/10 07:31:47;;;;;;;5.73;3.60;;;;;;;;;;4898161;29;20203;-85
2022/06/10 07:34:17;;;;;;;3.73;2.30;;;;;;;;;;4911526;29;20235;-83
2022/06/10 07:36:46;;;;;;;4.83;2.53;;;;;;;;;;4899284;29;20203;-84
2022/06/10 07:39:17;;;;;;;7.67;3.37;;;;;;;;;;4912408;29;20282;-84
2022/06/10 07:41:57;;;;;;;6.93;3.40;;;;;;;;;;4913160;29;20268;-84
2022/06/10 07:44:26;;;;;;;2.83;1.43;;;;;;;;;;4897231;29;20316;-83
2022/06/10 07:46:56;;;;;;;10.07;3.73;;;;;;;;;;4915317;29;20243;-84
2022/06/10 07:49:30;;;;;;;6.90;2.60;;;;;;;;;;4901660;29;20199;-84
2022/06/10 07:51:58;;;;;;;1.70;1.43;;;;;;;;;;4902036;29;20219;-85
2022/06/10 07:54:43;;;;;;;7.60;2.50;;;;;;;;;;4900602;29;20243;-83
2022/06/10 07:57:12;;;;;;;9.27;3.43;;;;;;;;;;4898111;29;20211;-82
2022/06/10 07:59:42;;;;;;;3.30;2.50;;;;;;;;;;4900465;29;20251;-83
2022/06/10 08:02:10;;;;;;;6.40;2.77;;;;;;;;;;4915784;29;20216;-84
2022/06/10 08:04:39;;;;;;;3.27;1.73;;;;;;;;;;4901999;29;20199;-83
2022/06/10 08:07:08;;;;;;;2.23;1.97;;;;;;;;;;4909034;29;20194;-84
2022/06/10 08:09:39;;;;;;;4.57;2.03;;;;;;;;;;4896617;29;20218;-84
2022/06/10 08:12:10;;;;;;;11.87;2.93;;;;;;;;;;4897490;29;20208;-83
2022/06/10 08:14:40;;;;;;;6.87;2.93;;;;;;;;;;4880480;29;20212;-83
2022/06/10 08:17:09;;;;;;;6.13;2.70;;;;;;;;;;4880890;29;20208;-83
2022/06/10 08:19:37;;;;;;;4.87;3.07;;;;;;;;;;4910234;29;20231;-84
2022/06/10 08:24:56;;;;;;;11.87;4.03;;;;;;;;;;4900486;29;20215;-84
2022/06/10 08:27:30;;;;;;;6.90;3.43;;;;;;;;;;4897410;29;20195;-84
2022/06/10 08:30:11;;;;;;;6.10;3.07;;;;;;;;;;4881847;29;20215;-84
2022/06/10 08:32:40;;;;;;;6.87;2.87;;;;;;;;;;4913504;29;20203;-83
2022/06/10 08:35:17;;;;;;;13.40;3.97;;;;;;;;;;4881781;29;20216;-85
2022/06/10 08:37:46;;;;;;;6.73;3.93;;;;;;;;;;4899404;29;20204;-84
2022/06/10 08:40:22;;;;;;;4.90;2.23;;;;;;;;;;4879378;29;20228;-83
2022/06/10 08:42:54;;;;;;;10.80;4.73;;;;;;;;;;4911032;29;20200;-84
2022/06/10 08:45:29;;;;;;;3.47;2.20;;;;;;;;;;4907199;29;20218;-83
2022/06/10 08:48:03;;;;;;;9.33;4.40;;;;;;;;;;4908266;29;20213;-83
2022/06/10 08:50:52;;;;;;;2.63;2.17;;;;;;;;;;4878469;29;20211;-82
2022/06/10 08:53:30;;;;;;;15.23;4.17;;;;;;;;;;4911528;29;20211;-82
2022/06/10 08:56:05;;;;;;;6.37;3.20;;;;;;;;;;4905813;29;20212;-82
2022/06/10 08:58:38;;;;;;;11.83;4.57;;;;;;;;;;4908171;29;20218;-81
2022/06/10 09:01:08;;;;;;;3.87;2.60;;;;;;;;;;4876100;29;20217;-82
2022/06/10 09:03:40;;;;;;;6.27;3.40;;;;;;;;;;4880109;29;20228;-82
2022/06/10 09:06:11;;;;;;;8.20;2.80;;;;;;;;;;4879362;29;20222;-81
2022/06/10 09:08:42;;;;;;;9.03;3.37;;;;;;;;;;4877166;29;20284;-83
2022/06/10 09:11:15;;;;;;;7.70;4.37;;;;;;;;;;4878585;29;20223;-81
2022/06/10 09:13:47;;;;;;;7.27;4.00;;;;;;;;;;4894105;29;20253;-80
2022/06/10 09:16:18;;;;;;;2.37;1.43;;;;;;;;;;4875999;29;20311;-81
2022/06/10 09:18:56;;;;;;;1.30;1.23;;;;;;;;;;4876976;29;20220;-81
2022/06/10 09:21:27;;;;;;;5.60;3.03;;;;;;;;;;4875250;29;20227;-82
2022/06/10 09:23:59;;;;;;;3.00;2.17;;;;;;;;;;4872991;29;20228;-84
2022/06/10 09:26:32;;;;;;;5.83;3.90;;;;;;;;;;4889161;29;20212;-83
2022/06/10 09:29:08;;;;;;;3.93;2.57;;;;;;;;;;4905264;29;20265;-82
2022/06/10 09:31:38;;;;;;;0.93;0.93;;;;;;;;;;4905824;29;20269;-81
2022/06/10 09:34:19;;;;;;;4.97;1.77;;;;;;;;;;4877915;29;20253;-81
2022/06/10 09:36:52;;;;;;;1.00;1.00;;;;;;;;;;4872580;29;20213;-82
2022/06/10 09:42:17;;;;;;;1.60;1.20;;;;;;;;;;4866829;29;20218;-81
2022/06/10 09:44:54;;;;;;;1.30;1.20;;;;;;;;;;4876342;29;20284;-84
2022/06/10 09:47:43;;;;;;;1.90;1.10;;;;;;;;;;4872851;29;20299;-86
2022/06/10 09:50:21;;;;;;;2.87;1.43;;;;;;;;;;4873759;29;20204;-84
2022/06/10 09:53:06;;;;;;;2.00;1.03;;;;;;;;;;4903458;29;20243;-84
2022/06/10 09:55:45;;;;;;;0.87;0.87;;;;;;;;;;4876804;29;20245;-86
2022/06/10 09:58:35;;;;;;;1.47;1.37;;;;;;;;;;4901241;29;20230;-83
2022/06/10 10:01:13;;;;;;;1.20;1.10;;;;;;;;;;4873168;29;20211;-82
2022/06/10 10:03:48;;;;;;;0.70;0.60;;;;;;;;;;4902946;29;20223;-82
2022/06/10 10:06:23;;;;;;;0.90;0.90;;;;;;;;;;4871780;29;20209;-82
2022/06/10 10:09:08;;;;;;;5.43;1.60;;;;;;;;;;4875827;29;20215;-82
2022/06/10 10:11:42;;;;;;;0.83;0.83;;;;;;;;;;4878605;29;20258;-82
2022/06/10 10:14:17;;;;;;;1.20;1.20;;;;;;;;;;4871558;29;20244;-82
2022/06/10 10:16:55;;;;;;;1.60;1.03;;;;;;;;;;4873451;29;20209;-82
2022/06/10 10:19:41;;;;;;;3.07;1.47;;;;;;;;;;4874489;29;20206;-85
2022/06/10 10:22:31;;;;;;;2.23;1.17;;;;;;;;;;4903120;29;20213;-84
2022/06/10 10:25:00;;;;;;;0.70;0.70;;;;;;;;;;4887351;29;20244;-80
2022/06/10 10:27:33;;;;;;;1.60;1.10;;;;;;;;;;4889394;29;20294;-85
2022/06/10 10:30:07;;;;;;;3.40;1.33;;;;;;;;;;4876063;29;20217;-87
2022/06/10 10:32:43;;;;;;;1.33;1.20;;;;;;;;;;4902349;29;20225;-88
2022/06/10 10:35:21;;;;;;;4.80;1.40;;;;;;;;;;4871845;29;20266;-87
2022/06/10 10:38:01;;;;;;;4.93;1.43;;;;;;;;;;4902344;29;20257;-85
2022/06/10 10:40:33;;;;;;;0.90;0.90;;;;;;;;;;4868172;29;20310;-82
2022/06/10 10:43:08;;;;;;;2.77;1.17;;;;;;;;;;4902781;29;20214;-81
2022/06/10 10:45:39;;;;;;;4.70;1.40;;;;;;;;;;4901642;29;20200;-81
2022/06/10 10:48:16;;;;;;;2.53;1.43;;;;;;;;;;4901398;29;20304;-83
2022/06/10 10:50:53;;;;;;;1.00;0.87;;;;;;;;;;4907939;29;20200;-84
2022/06/10 10:53:24;;;;;;;4.07;1.87;;;;;;;;;;4902179;29;20208;-78
2022/06/10 10:55:54;;;;;;;1.63;1.53;;;;;;;;;;4871806;29;20224;-80
2022/06/10 10:58:28;;;;;;;4.50;1.60;;;;;;;;;;4883328;29;20235;-83
2022/06/10 11:01:01;;;;;;;1.77;1.67;;;;;;;;;;4906089;29;20235;-82
2022/06/10 11:03:32;;;;;;;2.57;1.17;;;;;;;;;;4902551;29;20227;-80
2022/06/10 11:06:07;;;;;;;5.00;2.43;;;;;;;;;;4887216;29;20206;-81
2022/06/10 11:08:38;;;;;;;4.70;1.77;;;;;;;;;;4907840;29;20214;-81
2022/06/10 11:11:12;;;;;;;2.70;1.80;;;;;;;;;;4877016;29;20288;-81
2022/06/10 11:13:46;;;;;;;5.83;1.67;;;;;;;;;;4908183;29;20252;-81
2022/06/10 11:16:19;;;;;;;7.87;2.33;;;;;;;;;;4912428;29;20207;-81
2022/06/10 11:18:54;;;;;;;3.67;1.70;;;;;;;;;;4923367;29;20214;-80
2022/06/10 11:21:27;;;;;;;2.53;1.83;;;;;;;;;;4918363;29;20233;-81
2022/06/10 11:24:02;;;;;;;10.57;2.77;;;;;;;;;;4926559;29;20243;-81
2022/06/10 11:26:31;;;;;;;5.70;2.13;;;;;;;;;;4905163;29;20253;-82
2022/06/10 11:29:07;;;;;;;0.90;0.83;;;;;;;;;;4922308;29;20216;-81
2022/06/10 11:31:40;;;;;;;1.83;1.37;;;;;;;;;;4922989;29;20234;-82
2022/06/10 11:34:17;;;;;;;9.90;2.20;;;;;;;;;;4911276;29;20222;-85
2022/06/10 11:36:56;;;;;;;4.50;1.90;;;;;;;;;;4895522;29;20213;-85
2022/06/10 11:39:31;;;;;;;3.03;1.30;;;;;;;;;;4923914;29;20216;-84
2022/06/10 11:42:07;;;;;;;2.87;2.07;;;;;;;;;;4910814;29;20278;-82
2022/06/10 11:44:40;;;;;;;4.20;1.37;;;;;;;;;;4922082;29;20288;-83
2022/06/10 11:47:27;;;;;;;3.43;1.30;;;;;;;;;;4930248;29;20212;-85
2022/06/10 11:50:06;;;;;;;4.90;2.43;;;;;;;;;;4912847;29;20216;-83
2022/06/10 11:52:57;;;;;;;3.83;2.00;;;;;;;;;;4907996;29;20305;-84
2022/06/10 11:55:31;;;;;;;2.87;1.80;;;;;;;;;;4917751;29;20203;-84
2022/06/10 12:00:53;;;;;;;3.47;2.20;;;;;;;;;;4927631;29;20408;-85
2022/06/10 12:03:32;;;;;;;2.80;1.23;;;;;;;;;;4925617;29;20249;-86
2022/06/10 12:06:05;;;;;;;1.60;1.43;;;;;;;;;;4915919;29;20208;-86
2022/06/10 12:08:39;;;;;;;5.83;2.17;;;;;;;;;;4929707;29;20283;-86
2022/06/10 12:11:24;;;;;;;2.27;0.97;;;;;;;;;;4899484;29;20292;-86
2022/06/10 12:13:59;;;;;;;2.40;1.67;;;;;;;;;;4927796;29;20245;-84
2022/06/10 12:16:36;;;;;;;2.07;1.53;;;;;;;;;;4926702;29;20229;-85
2022/06/10 12:19:08;;;;;;;3.00;1.90;;;;;;;;;;4912543;29;20218;-83
2022/06/10 12:21:38;;;;;;;1.80;1.03;;;;;;;;;;4928277;29;20225;-84
2022/06/10 12:24:13;;;;;;;3.50;1.30;;;;;;;;;;4929730;29;20205;-82
2022/06/10 12:26:46;;;;;;;4.00;1.87;;;;;;;;;;4895040;29;20238;-89
2022/06/10 12:29:18;;;;;;;5.17;1.47;;;;;;;;;;4894415;29;20244;-87
2022/06/10 12:31:52;;;;;;;7.63;2.53;;;;;;;;;;4927453;29;20203;-87
2022/06/10 12:34:32;;;;;;;1.17;1.07;;;;;;;;;;4909408;29;20214;-86
2022/06/10 12:37:10;;;;;;;2.90;1.30;;;;;;;;;;4927661;29;20213;-86
2022/06/10 12:39:47;;;;;;;6.10;1.47;;;;;;;;;;4926565;29;20218;-86
2022/06/10 12:42:21;;;;;;;0.40;0.40;;;;;;;;;;4928030;29;20270;-86
2022/06/10 12:44:58;;;;;;;1.60;1.23;;;;;;;;;;4895799;29;20230;-86
2022/06/10 12:47:29;;;;;;;6.13;2.73;;;;;;;;;;4900474;29;20213;-84
2022/06/10 12:49:59;;;;;;;7.10;1.73;;;;;;;;;;4914483;29;20197;-87
2022/06/10 12:52:41;;;;;;;3.87;1.37;;;;;;;;;;4923090;29;20207;-85
2022/06/10 12:55:18;;;;;;;1.33;1.00;;;;;;;;;;4898132;29;20214;-86
2022/06/10 12:57:48;;;;;;;0.60;0.60;;;;;;;;;;4896789;29;20209;-85
2022/06/10 13:00:42;;;;;;;1.47;0.90;;;;;;;;;;4895926;29;20210;-86
2022/06/10 13:03:30;;;;;;;1.93;1.43;;;;;;;;;;4896997;29;20214;-84
2022/06/10 13:06:03;;;;;;;2.67;1.03;;;;;;;;;;4927997;29;20222;-85
2022/06/10 13:08:49;;;;;;;4.50;1.90;;;;;;;;;;4925046;29;20297;-83
2022/06/10 13:11:35;;;;;;;1.30;0.93;;;;;;;;;;4910044;29;20201;-85
2022/06/10 13:14:22;;;;;;;1.27;1.00;;;;;;;;;;4886197;29;20249;-84
2022/06/10 13:17:08;;;;;;;1.20;0.63;;;;;;;;;;4906390;29;20205;-83
2022/06/10 13:19:38;;;;;;;0.97;0.93;;;;;;;;;;4891805;29;20230;-80
2022/06/10 13:22:27;;;;;;;1.37;0.90;;;;;;;;;;4874654;29;20287;-80
2022/06/10 13:25:10;;;;;;;1.03;0.93;;;;;;;;;;4905361;29;20210;-83
2022/06/10 13:27:43;;;;;;;4.67;2.30;;;;;;;;;;4908158;29;20202;-82
2022/06/10 13:30:16;;;;;;;0.83;0.83;;;;;;;;;;4871965;29;20214;-83
2022/06/10 13:32:55;;;;;;;2.90;1.00;;;;;;;;;;4904672;29;20207;-83
2022/06/10 13:35:29;;;;;;;4.03;1.47;;;;;;;;;;4905316;29;20210;-84
2022/06/10 13:37:59;;;;;;;1.10;1.00;;;;;;;;;;4876518;29;20259;-87
2022/06/10 13:40:29;;;;;;;0.63;0.63;;;;;;;;;;4902650;29;20203;-86
2022/06/10 13:43:01;;;;;;;1.27;1.07;;;;;;;;;;4904529;29;20276;-84
2022/06/10 13:45:34;;;;;;;2.77;0.90;;;;;;;;;;4906167;29;20250;-86
2022/06/10 13:48:14;;;;;;;1.37;1.07;;;;;;;;;;4910945;29;20200;-84
2022/06/10 13:51:12;;;;;;;1.57;1.40;;;;;;;;;;4901682;29;20420;-86
2022/06/10 13:53:42;;;;;;;3.83;1.43;;;;;;;;;;4896636;29;20327;-85
2022/06/10 13:56:13;;;;;;;2.07;1.47;;;;;;;;;;4905254;29;20292;-85
2022/06/10 13:58:52;;;;;;;0.83;0.83;;;;;;;;;;4878927;29;20215;-85
2022/06/10 14:01:26;;;;;;;1.73;1.37;;;;;;;;;;4909818;29;20228;-85
2022/06/10 14:03:57;;;;;;;3.67;1.90;;;;;;;;;;4910742;29;20207;-84
2022/06/10 14:06:45;;;;;;;0.83;0.70;;;;;;;;;;4877597;29;20299;-85
2022/06/10 14:09:19;;;;;;;2.70;1.23;;;;;;;;;;4893218;29;20276;-83
2022/06/10 14:11:58;;;;;;;0.63;0.63;;;;;;;;;;4871947;29;20210;-86
2022/06/10 14:14:34;;;;;;;0.60;0.60;;;;;;;;;;4911858;29;20262;-84
2022/06/10 14:17:04;;;;;;;0.63;0.63;;;;;;;;;;4904726;29;20207;-84
2022/06/10 14:19:36;;;;;;;0.90;0.90;;;;;;;;;;4887751;29;20298;-89
2022/06/10 14:22:24;;;;;;;3.20;1.37;;;;;;;;;;4907259;29;20218;-87
2022/06/10 14:25:19;;;;;;;3.10;0.87;;;;;;;;;;4870116;29;20219;-86
2022/06/10 14:27:52;;;;;;;0.83;0.80;;;;;;;;;;4877299;29;20204;-85
2022/06/10 14:30:42;;;;;;;0.50;0.50;;;;;;;;;;4907670;29;20203;-84
2022/06/10 14:33:24;;;;;;;1.67;1.20;;;;;;;;;;4906717;29;20271;-86
2022/06/10 14:35:54;;;;;;;2.30;1.10;;;;;;;;;;4878051;29;20208;-86
2022/06/10 14:38:24;;;;;;;0.70;0.70;;;;;;;;;;4879264;29;20408;-88
2022/06/10 14:40:57;;;;;;;0.90;0.80;;;;;;;;;;4875422;29;20221;-87
2022/06/10 14:43:35;;;;;;;0.80;0.80;;;;;;;;;;4900146;29;20236;-87
2022/06/10 14:46:18;;;;;;;2.97;1.07;;;;;;;;;;4917920;29;20261;-86
2022/06/10 14:48:51;;;;;;;1.47;0.73;;;;;;;;;;4899685;29;20217;-88
2022/06/10 14:51:29;;;;;;;1.60;0.70;;;;;;;;;;4907920;29;20205;-86
2022/06/10 14:53:59;;;;;;;2.53;0.70;;;;;;;;;;4903274;29;20289;-84
2022/06/10 14:56:31;;;;;;;4.97;0.97;;;;;;;;;;4913259;29;20211;-85
2022/06/10 14:58:59;;;;;;;1.20;1.10;;;;;;;;;;4910424;29;20219;-85
2022/06/10 15:01:31;;;;;;;1.17;0.80;;;;;;;;;;4882278;29;20210;-85
2022/06/10 15:04:00;;;;;;;0.57;0.57;;;;;;;;;;4890366;29;20258;-84
2022/06/10 15:06:33;;;;;;;1.97;1.47;;;;;;;;;;4890889;29;20229;-84
2022/06/10 15:09:07;;;;;;;0.83;0.80;;;;;;;;;;4925610;29;20214;-86
2022/06/10 15:11:36;;;;;;;1.50;0.60;;;;;;;;;;4900343;29;20210;-87
2022/06/10 15:14:04;;;;;;;0.67;0.67;;;;;;;;;;4901460;29;20229;-86
2022/06/10 15:16:37;;;;;;;2.47;0.97;;;;;;;;;;4882511;29;20206;-86
2022/06/10 15:19:28;;;;;;;3.20;0.97;;;;;;;;;;4910132;29;20201;-85
2022/06/10 15:22:03;;;;;;;2.63;1.93;;;;;;;;;;4882715;29;20218;-92
2022/06/10 15:24:38;;;;;;;1.00;0.90;;;;;;;;;;4885729;29;20240;-91
2022/06/10 15:27:18;;;;;;;1.17;0.67;;;;;;;;;;4881729;29;20214;-92
2022/06/10 15:29:50;;;;;;;0.77;0.77;;;;;;;;;;4886559;29;20221;-88
2022/06/10 15:32:24;;;;;;;0.70;0.70;;;;;;;;;;4919374;29;20228;-87
2022/06/10 15:41:13;;;;;;;2.57;1.03;;;;;;;;;;4913828;29;20241;-93